sensor_id;sensor_type;location;lat;lon;timestamp;temperature;humidity
10304;DHT22;5197;48.152;8.590;2022-11-18T00:01:16;7.90;30.40
10304;DHT22;5197;48.152;8.590;2022-11-18T00:03:44;7.80;30.50
10304;DHT22;5197;48.152;8.590;2022-11-18T00:06:13;7.70;30.60
10304;DHT22;5197;48.152;8.590;2022-11-18T00:08:41;7.80;30.80
10304;DHT22;5197;48.152;8.590;2022-11-18T00:11:14;7.70;31.30
10304;DHT22;5197;48.152;8.590;2022-11-18T00:14:15;7.70;31.40
10304;DHT22;5197;48.152;8.590;2022-11-18T00:16:56;7.70;31.40
10304;DHT22;5197;48.152;8.590;2022-11-18T00:19:25;7.70;31.40
10304;DHT22;5197;48.152;8.590;2022-11-18T00:21:53;7.70;32.70
10304;DHT22;5197;48.152;8.590;2022-11-18T00:24:20;7.70;31.80
10304;DHT22;5197;48.152;8.590;2022-11-18T00:26:47;7.70;31.80
10304;DHT22;5197;48.152;8.590;2022-11-18T00:29:15;7.70;31.40
10304;DHT22;5197;48.152;8.590;2022-11-18T00:31:43;7.70;31.40
10304;DHT22;5197;48.152;8.590;2022-11-18T00:34:12;7.70;31.40
10304;DHT22;5197;48.152;8.590;2022-11-18T00:36:40;7.70;31.70
10304;DHT22;5197;48.152;8.590;2022-11-18T00:39:08;7.70;31.80
10304;DHT22;5197;48.152;8.590;2022-11-18T00:41:35;7.80;32.00
10304;DHT22;5197;48.152;8.590;2022-11-18T00:44:21;7.80;31.80
10304;DHT22;5197;48.152;8.590;2022-11-18T00:46:48;7.80;31.80
10304;DHT22;5197;48.152;8.590;2022-11-18T00:49:15;7.80;32.10
10304;DHT22;5197;48.152;8.590;2022-11-18T00:51:42;7.80;32.50
10304;DHT22;5197;48.152;8.590;2022-11-18T00:54:09;7.80;32.70
10304;DHT22;5197;48.152;8.590;2022-11-18T00:56:36;7.80;33.10
10304;DHT22;5197;48.152;8.590;2022-11-18T00:59:03;7.80;34.30
10304;DHT22;5197;48.152;8.590;2022-11-18T01:01:30;7.70;34.40
10304;DHT22;5197;48.152;8.590;2022-11-18T01:03:58;7.70;36.50
10304;DHT22;5197;48.152;8.590;2022-11-18T01:06:25;7.70;37.50
10304;DHT22;5197;48.152;8.590;2022-11-18T01:08:52;7.50;45.30
10304;DHT22;5197;48.152;8.590;2022-11-18T01:11:19;7.40;49.60
10304;DHT22;5197;48.152;8.590;2022-11-18T01:14:06;7.30;55.90
10304;DHT22;5197;48.152;8.590;2022-11-18T01:16:33;7.20;55.50
10304;DHT22;5197;48.152;8.590;2022-11-18T01:19:00;7.30;52.30
10304;DHT22;5197;48.152;8.590;2022-11-18T01:21:28;7.30;48.70
10304;DHT22;5197;48.152;8.590;2022-11-18T01:23:55;7.40;45.20
10304;DHT22;5197;48.152;8.590;2022-11-18T01:26:22;7.50;45.30
10304;DHT22;5197;48.152;8.590;2022-11-18T01:28:49;7.50;43.50
10304;DHT22;5197;48.152;8.590;2022-11-18T01:31:17;7.60;41.80
10304;DHT22;5197;48.152;8.590;2022-11-18T01:33:45;7.60;40.30
10304;DHT22;5197;48.152;8.590;2022-11-18T01:36:24;7.60;39.30
10304;DHT22;5197;48.152;8.590;2022-11-18T01:38:52;7.70;38.70
10304;DHT22;5197;48.152;8.590;2022-11-18T01:41:21;7.70;39.40
10304;DHT22;5197;48.152;8.590;2022-11-18T01:43:51;7.70;37.60
10304;DHT22;5197;48.152;8.590;2022-11-18T01:46:20;7.70;37.30
10304;DHT22;5197;48.152;8.590;2022-11-18T01:48:51;7.70;37.60
10304;DHT22;5197;48.152;8.590;2022-11-18T01:51:26;7.70;38.20
10304;DHT22;5197;48.152;8.590;2022-11-18T01:54:05;7.70;38.40
10304;DHT22;5197;48.152;8.590;2022-11-18T01:56:43;7.70;38.20
10304;DHT22;5197;48.152;8.590;2022-11-18T01:59:13;7.70;37.90
10304;DHT22;5197;48.152;8.590;2022-11-18T02:01:43;7.70;37.30
10304;DHT22;5197;48.152;8.590;2022-11-18T02:04:10;7.70;36.90
10304;DHT22;5197;48.152;8.590;2022-11-18T02:06:38;7.70;36.70
10304;DHT22;5197;48.152;8.590;2022-11-18T02:09:06;7.70;36.40
10304;DHT22;5197;48.152;8.590;2022-11-18T02:11:33;7.70;36.00
10304;DHT22;5197;48.152;8.590;2022-11-18T02:14:27;7.70;35.50
10304;DHT22;5197;48.152;8.590;2022-11-18T02:31:45;7.50;36.10
10304;DHT22;5197;48.152;8.590;2022-11-18T02:36:56;7.30;38.00
10304;DHT22;5197;48.152;8.590;2022-11-18T02:39:38;7.30;38.00
10304;DHT22;5197;48.152;8.590;2022-11-18T02:42:08;7.40;37.60
10304;DHT22;5197;48.152;8.590;2022-11-18T02:44:39;7.40;37.30
10304;DHT22;5197;48.152;8.590;2022-11-18T02:47:09;7.40;37.10
10304;DHT22;5197;48.152;8.590;2022-11-18T02:49:47;7.40;36.80
10304;DHT22;5197;48.152;8.590;2022-11-18T02:52:16;7.50;36.40
10304;DHT22;5197;48.152;8.590;2022-11-18T02:54:45;7.50;36.20
10304;DHT22;5197;48.152;8.590;2022-11-18T02:57:14;7.50;36.00
10304;DHT22;5197;48.152;8.590;2022-11-18T02:59:41;7.60;35.90
10304;DHT22;5197;48.152;8.590;2022-11-18T03:02:17;7.60;36.40
10304;DHT22;5197;48.152;8.590;2022-11-18T03:04:46;7.50;36.30
10304;DHT22;5197;48.152;8.590;2022-11-18T03:07:18;7.50;36.70
10304;DHT22;5197;48.152;8.590;2022-11-18T03:09:50;7.60;36.70
10304;DHT22;5197;48.152;8.590;2022-11-18T03:20:35;7.50;36.80
10304;DHT22;5197;48.152;8.590;2022-11-18T03:23:10;7.60;36.40
10304;DHT22;5197;48.152;8.590;2022-11-18T03:31:26;7.40;37.70
10304;DHT22;5197;48.152;8.590;2022-11-18T03:34:37;7.30;41.40
10304;DHT22;5197;48.152;8.590;2022-11-18T03:36:59;7.40;40.20
10304;DHT22;5197;48.152;8.590;2022-11-18T03:39:36;7.40;39.20
10304;DHT22;5197;48.152;8.590;2022-11-18T03:42:20;7.40;38.40
10304;DHT22;5197;48.152;8.590;2022-11-18T03:44:52;7.50;37.80
10304;DHT22;5197;48.152;8.590;2022-11-18T03:47:30;7.50;38.40
10304;DHT22;5197;48.152;8.590;2022-11-18T03:50:14;7.50;36.70
10304;DHT22;5197;48.152;8.590;2022-11-18T03:52:43;7.50;36.40
10304;DHT22;5197;48.152;8.590;2022-11-18T03:55:16;7.40;36.30
10304;DHT22;5197;48.152;8.590;2022-11-18T04:00:16;7.50;35.90
10304;DHT22;5197;48.152;8.590;2022-11-18T04:02:46;7.50;35.60
10304;DHT22;5197;48.152;8.590;2022-11-18T04:05:16;7.40;35.20
10304;DHT22;5197;48.152;8.590;2022-11-18T04:10:24;7.40;34.20
10304;DHT22;5197;48.152;8.590;2022-11-18T04:12:58;7.40;34.00
10304;DHT22;5197;48.152;8.590;2022-11-18T04:15:33;7.30;34.00
10304;DHT22;5197;48.152;8.590;2022-11-18T04:18:02;7.30;34.00
10304;DHT22;5197;48.152;8.590;2022-11-18T04:20:29;7.40;33.70
10304;DHT22;5197;48.152;8.590;2022-11-18T04:22:58;7.30;33.40
10304;DHT22;5197;48.152;8.590;2022-11-18T04:25:25;7.40;33.10
10304;DHT22;5197;48.152;8.590;2022-11-18T04:27:52;7.30;32.80
10304;DHT22;5197;48.152;8.590;2022-11-18T04:30:19;7.30;32.50
10304;DHT22;5197;48.152;8.590;2022-11-18T04:32:45;7.30;32.30
10304;DHT22;5197;48.152;8.590;2022-11-18T04:35:13;7.30;32.30
10304;DHT22;5197;48.152;8.590;2022-11-18T04:37:40;7.30;32.20
10304;DHT22;5197;48.152;8.590;2022-11-18T04:40:08;7.30;32.00
10304;DHT22;5197;48.152;8.590;2022-11-18T04:42:35;7.30;32.00
10304;DHT22;5197;48.152;8.590;2022-11-18T04:45:03;7.30;32.00
10304;DHT22;5197;48.152;8.590;2022-11-18T04:47:30;7.30;31.90
10304;DHT22;5197;48.152;8.590;2022-11-18T04:49:57;7.20;31.70
10304;DHT22;5197;48.152;8.590;2022-11-18T04:52:24;7.20;31.80
10304;DHT22;5197;48.152;8.590;2022-11-18T04:54:51;7.20;32.00
10304;DHT22;5197;48.152;8.590;2022-11-18T04:57:18;7.20;32.00
10304;DHT22;5197;48.152;8.590;2022-11-18T04:59:45;7.20;31.90
10304;DHT22;5197;48.152;8.590;2022-11-18T05:02:12;7.20;31.90
10304;DHT22;5197;48.152;8.590;2022-11-18T05:04:39;7.20;31.60
10304;DHT22;5197;48.152;8.590;2022-11-18T05:07:06;7.20;31.50
10304;DHT22;5197;48.152;8.590;2022-11-18T05:09:33;7.30;31.50
10304;DHT22;5197;48.152;8.590;2022-11-18T05:12:00;7.30;31.30
10304;DHT22;5197;48.152;8.590;2022-11-18T05:14:46;7.30;31.20
10304;DHT22;5197;48.152;8.590;2022-11-18T05:17:17;7.20;31.10
10304;DHT22;5197;48.152;8.590;2022-11-18T05:19:44;7.20;31.20
10304;DHT22;5197;48.152;8.590;2022-11-18T05:22:13;7.20;31.10
10304;DHT22;5197;48.152;8.590;2022-11-18T05:24:40;7.20;31.00
10304;DHT22;5197;48.152;8.590;2022-11-18T05:27:07;7.20;31.00
10304;DHT22;5197;48.152;8.590;2022-11-18T05:29:34;7.20;31.00
10304;DHT22;5197;48.152;8.590;2022-11-18T05:32:01;7.10;30.90
10304;DHT22;5197;48.152;8.590;2022-11-18T05:34:28;7.10;31.00
10304;DHT22;5197;48.152;8.590;2022-11-18T05:36:55;7.10;31.50
10304;DHT22;5197;48.152;8.590;2022-11-18T05:39:22;7.10;31.70
10304;DHT22;5197;48.152;8.590;2022-11-18T05:41:49;7.00;31.60
10304;DHT22;5197;48.152;8.590;2022-11-18T05:44:34;7.00;31.90
10304;DHT22;5197;48.152;8.590;2022-11-18T05:47:01;6.90;32.00
10304;DHT22;5197;48.152;8.590;2022-11-18T05:49:28;6.90;31.90
10304;DHT22;5197;48.152;8.590;2022-11-18T05:51:55;6.90;32.00
10304;DHT22;5197;48.152;8.590;2022-11-18T05:54:22;6.90;31.70
10304;DHT22;5197;48.152;8.590;2022-11-18T05:56:49;6.80;31.20
10304;DHT22;5197;48.152;8.590;2022-11-18T05:59:16;6.70;31.70
10304;DHT22;5197;48.152;8.590;2022-11-18T06:01:45;6.70;32.30
10304;DHT22;5197;48.152;8.590;2022-11-18T06:06:48;6.60;32.80
10304;DHT22;5197;48.152;8.590;2022-11-18T06:09:19;6.60;33.10
10304;DHT22;5197;48.152;8.590;2022-11-18T06:11:51;6.60;34.10
10304;DHT22;5197;48.152;8.590;2022-11-18T06:14:42;6.50;32.90
10304;DHT22;5197;48.152;8.590;2022-11-18T06:17:18;6.50;32.80
10304;DHT22;5197;48.152;8.590;2022-11-18T06:19:46;6.40;33.50
10304;DHT22;5197;48.152;8.590;2022-11-18T06:22:13;6.40;35.00
10304;DHT22;5197;48.152;8.590;2022-11-18T06:24:41;6.40;33.80
10304;DHT22;5197;48.152;8.590;2022-11-18T06:27:10;6.30;33.90
10304;DHT22;5197;48.152;8.590;2022-11-18T06:29:37;6.30;34.00
10304;DHT22;5197;48.152;8.590;2022-11-18T06:32:04;6.30;34.30
10304;DHT22;5197;48.152;8.590;2022-11-18T06:34:31;6.30;34.50
10304;DHT22;5197;48.152;8.590;2022-11-18T06:37:13;6.30;34.80
10304;DHT22;5197;48.152;8.590;2022-11-18T06:39:40;6.30;34.50
10304;DHT22;5197;48.152;8.590;2022-11-18T06:42:07;6.30;34.60
10304;DHT22;5197;48.152;8.590;2022-11-18T06:44:34;6.30;34.30
10304;DHT22;5197;48.152;8.590;2022-11-18T06:47:02;6.30;34.30
10304;DHT22;5197;48.152;8.590;2022-11-18T06:49:29;6.30;34.30
10304;DHT22;5197;48.152;8.590;2022-11-18T06:51:56;6.40;34.30
10304;DHT22;5197;48.152;8.590;2022-11-18T06:54:23;6.40;34.20
10304;DHT22;5197;48.152;8.590;2022-11-18T06:56:50;6.30;34.10
10304;DHT22;5197;48.152;8.590;2022-11-18T06:59:17;6.30;34.20
10304;DHT22;5197;48.152;8.590;2022-11-18T07:01:49;6.30;34.50
10304;DHT22;5197;48.152;8.590;2022-11-18T07:04:19;6.30;34.70
10304;DHT22;5197;48.152;8.590;2022-11-18T07:06:46;6.30;35.00
10304;DHT22;5197;48.152;8.590;2022-11-18T07:09:13;6.40;35.10
10304;DHT22;5197;48.152;8.590;2022-11-18T07:11:40;6.40;35.30
10304;DHT22;5197;48.152;8.590;2022-11-18T07:14:08;6.40;34.90
10304;DHT22;5197;48.152;8.590;2022-11-18T07:16:35;6.40;34.90
10304;DHT22;5197;48.152;8.590;2022-11-18T07:19:11;6.40;35.60
10304;DHT22;5197;48.152;8.590;2022-11-18T07:21:39;6.40;35.60
10304;DHT22;5197;48.152;8.590;2022-11-18T07:24:07;6.40;35.70
10304;DHT22;5197;48.152;8.590;2022-11-18T07:26:34;6.40;35.90
10304;DHT22;5197;48.152;8.590;2022-11-18T07:29:02;6.40;36.20
10304;DHT22;5197;48.152;8.590;2022-11-18T07:31:30;6.50;36.50
10304;DHT22;5197;48.152;8.590;2022-11-18T07:33:57;6.50;36.50
10304;DHT22;5197;48.152;8.590;2022-11-18T07:36:26;6.50;36.40
10304;DHT22;5197;48.152;8.590;2022-11-18T07:39:02;6.50;36.50
10304;DHT22;5197;48.152;8.590;2022-11-18T07:41:29;6.60;37.00
10304;DHT22;5197;48.152;8.590;2022-11-18T07:43:58;6.70;37.60
10304;DHT22;5197;48.152;8.590;2022-11-18T07:48:56;6.90;38.50
10304;DHT22;5197;48.152;8.590;2022-11-18T07:51:26;7.00;39.20
10304;DHT22;5197;48.152;8.590;2022-11-18T07:53:53;7.10;39.10
10304;DHT22;5197;48.152;8.590;2022-11-18T07:56:21;7.20;39.20
10304;DHT22;5197;48.152;8.590;2022-11-18T07:58:54;7.30;39.00
10304;DHT22;5197;48.152;8.590;2022-11-18T08:01:24;7.30;38.70
10304;DHT22;5197;48.152;8.590;2022-11-18T08:03:55;7.30;38.00
10304;DHT22;5197;48.152;8.590;2022-11-18T08:06:22;7.40;37.80
10304;DHT22;5197;48.152;8.590;2022-11-18T08:08:49;7.40;37.80
10304;DHT22;5197;48.152;8.590;2022-11-18T08:11:18;7.40;37.40
10304;DHT22;5197;48.152;8.590;2022-11-18T08:13:50;7.40;37.30
10304;DHT22;5197;48.152;8.590;2022-11-18T08:16:19;7.50;37.30
10304;DHT22;5197;48.152;8.590;2022-11-18T08:18:47;7.50;37.30
10304;DHT22;5197;48.152;8.590;2022-11-18T08:21:16;7.60;37.50
10304;DHT22;5197;48.152;8.590;2022-11-18T08:23:51;7.60;37.30
10304;DHT22;5197;48.152;8.590;2022-11-18T08:26:19;7.70;37.20
10304;DHT22;5197;48.152;8.590;2022-11-18T08:28:47;7.70;37.20
10304;DHT22;5197;48.152;8.590;2022-11-18T08:31:23;7.80;37.00
10304;DHT22;5197;48.152;8.590;2022-11-18T08:34:02;7.90;36.90
10304;DHT22;5197;48.152;8.590;2022-11-18T08:36:32;7.90;36.60
10304;DHT22;5197;48.152;8.590;2022-11-18T08:39:01;7.90;36.70
10304;DHT22;5197;48.152;8.590;2022-11-18T08:41:36;8.00;36.30
10304;DHT22;5197;48.152;8.590;2022-11-18T08:44:05;8.00;35.80
10304;DHT22;5197;48.152;8.590;2022-11-18T08:46:33;8.00;35.70
10304;DHT22;5197;48.152;8.590;2022-11-18T08:49:00;8.00;35.30
10304;DHT22;5197;48.152;8.590;2022-11-18T08:51:27;8.10;35.20
10304;DHT22;5197;48.152;8.590;2022-11-18T08:53:54;8.10;34.90
10304;DHT22;5197;48.152;8.590;2022-11-18T08:56:22;8.10;34.30
10304;DHT22;5197;48.152;8.590;2022-11-18T08:58:51;8.10;33.60
10304;DHT22;5197;48.152;8.590;2022-11-18T09:01:18;8.10;33.20
10304;DHT22;5197;48.152;8.590;2022-11-18T09:03:45;8.10;33.10
10304;DHT22;5197;48.152;8.590;2022-11-18T09:06:16;8.10;32.90
10304;DHT22;5197;48.152;8.590;2022-11-18T09:08:44;8.10;32.80
10304;DHT22;5197;48.152;8.590;2022-11-18T09:11:13;8.20;32.30
10304;DHT22;5197;48.152;8.590;2022-11-18T09:13:41;8.20;31.80
10304;DHT22;5197;48.152;8.590;2022-11-18T09:16:29;8.20;31.40
10304;DHT22;5197;48.152;8.590;2022-11-18T09:18:57;8.20;31.50
10304;DHT22;5197;48.152;8.590;2022-11-18T09:21:44;8.20;31.90
10304;DHT22;5197;48.152;8.590;2022-11-18T09:24:10;8.20;31.80
10304;DHT22;5197;48.152;8.590;2022-11-18T09:26:37;8.10;31.40
10304;DHT22;5197;48.152;8.590;2022-11-18T09:29:04;8.10;31.50
10304;DHT22;5197;48.152;8.590;2022-11-18T09:31:31;8.00;31.40
10304;DHT22;5197;48.152;8.590;2022-11-18T09:33:58;8.00;31.60
10304;DHT22;5197;48.152;8.590;2022-11-18T09:36:26;7.90;32.10
10304;DHT22;5197;48.152;8.590;2022-11-18T09:38:54;7.90;32.40
10304;DHT22;5197;48.152;8.590;2022-11-18T09:49:47;8.00;32.40
10304;DHT22;5197;48.152;8.590;2022-11-18T09:52:25;8.00;32.30
10304;DHT22;5197;48.152;8.590;2022-11-18T09:55:03;8.00;32.20
10304;DHT22;5197;48.152;8.590;2022-11-18T09:57:38;8.00;32.80
10304;DHT22;5197;48.152;8.590;2022-11-18T10:00:18;8.10;33.20
10304;DHT22;5197;48.152;8.590;2022-11-18T10:02:58;8.10;33.00
10304;DHT22;5197;48.152;8.590;2022-11-18T10:05:29;8.10;32.40
10304;DHT22;5197;48.152;8.590;2022-11-18T10:11:07;7.90;31.60
10304;DHT22;5197;48.152;8.590;2022-11-18T10:19:53;7.80;34.10
10304;DHT22;5197;48.152;8.590;2022-11-18T10:22:36;7.70;34.10
10304;DHT22;5197;48.152;8.590;2022-11-18T10:25:16;7.40;34.20
10304;DHT22;5197;48.152;8.590;2022-11-18T10:27:45;7.30;37.30
10304;DHT22;5197;48.152;8.590;2022-11-18T10:30:17;7.20;35.10
10304;DHT22;5197;48.152;8.590;2022-11-18T10:35:43;7.00;36.20
10304;DHT22;5197;48.152;8.590;2022-11-18T10:43:46;7.10;42.50
10304;DHT22;5197;48.152;8.590;2022-11-18T10:48:54;7.30;38.60
10304;DHT22;5197;48.152;8.590;2022-11-18T10:51:32;7.40;37.40
10304;DHT22;5197;48.152;8.590;2022-11-18T10:59:40;7.50;33.90
10304;DHT22;5197;48.152;8.590;2022-11-18T11:02:13;7.50;35.10
10304;DHT22;5197;48.152;8.590;2022-11-18T11:04:43;7.60;34.80
10304;DHT22;5197;48.152;8.590;2022-11-18T11:10:20;7.60;34.10
10304;DHT22;5197;48.152;8.590;2022-11-18T11:12:52;7.70;33.10
10304;DHT22;5197;48.152;8.590;2022-11-18T11:15:43;7.60;33.50
10304;DHT22;5197;48.152;8.590;2022-11-18T11:18:20;7.70;33.10
10304;DHT22;5197;48.152;8.590;2022-11-18T11:21:18;7.70;33.00
10304;DHT22;5197;48.152;8.590;2022-11-18T11:23:45;7.60;33.20
10304;DHT22;5197;48.152;8.590;2022-11-18T11:26:58;7.60;32.30
10304;DHT22;5197;48.152;8.590;2022-11-18T11:30:13;7.60;33.00
10304;DHT22;5197;48.152;8.590;2022-11-18T11:38:37;7.70;32.60
10304;DHT22;5197;48.152;8.590;2022-11-18T11:41:21;7.70;31.40
10304;DHT22;5197;48.152;8.590;2022-11-18T11:53:40;7.80;30.00
10304;DHT22;5197;48.152;8.590;2022-11-18T12:07:25;7.40;25.70
10304;DHT22;5197;48.152;8.590;2022-11-18T12:10:47;7.40;27.20
10304;DHT22;5197;48.152;8.590;2022-11-18T12:16:13;7.70;27.50
10304;DHT22;5197;48.152;8.590;2022-11-18T12:18:53;7.80;27.30
10304;DHT22;5197;48.152;8.590;2022-11-18T12:29:40;7.70;25.70
10304;DHT22;5197;48.152;8.590;2022-11-18T12:32:38;7.80;26.10
10304;DHT22;5197;48.152;8.590;2022-11-18T12:40:08;7.90;26.10
10304;DHT22;5197;48.152;8.590;2022-11-18T12:42:40;8.00;25.90
10304;DHT22;5197;48.152;8.590;2022-11-18T12:48:32;8.00;25.30
10304;DHT22;5197;48.152;8.590;2022-11-18T12:53:50;7.90;23.90
10304;DHT22;5197;48.152;8.590;2022-11-18T12:56:21;7.90;25.10
10304;DHT22;5197;48.152;8.590;2022-11-18T12:58:53;7.90;25.30
10304;DHT22;5197;48.152;8.590;2022-11-18T13:01:24;8.00;25.50
10304;DHT22;5197;48.152;8.590;2022-11-18T13:03:52;8.00;25.50
10304;DHT22;5197;48.152;8.590;2022-11-18T13:06:32;8.00;25.60
10304;DHT22;5197;48.152;8.590;2022-11-18T13:09:03;8.00;25.60
10304;DHT22;5197;48.152;8.590;2022-11-18T13:11:42;8.10;25.40
10304;DHT22;5197;48.152;8.590;2022-11-18T13:14:20;8.20;25.30
10304;DHT22;5197;48.152;8.590;2022-11-18T13:20:25;8.30;24.60
10304;DHT22;5197;48.152;8.590;2022-11-18T13:26:05;8.30;24.50
10304;DHT22;5197;48.152;8.590;2022-11-18T13:33:39;8.10;25.40
10304;DHT22;5197;48.152;8.590;2022-11-18T13:36:21;8.10;25.70
10304;DHT22;5197;48.152;8.590;2022-11-18T13:39:00;8.10;25.50
10304;DHT22;5197;48.152;8.590;2022-11-18T13:41:29;8.00;25.50
10304;DHT22;5197;48.152;8.590;2022-11-18T13:46:46;7.50;28.20
10304;DHT22;5197;48.152;8.590;2022-11-18T13:49:16;7.20;28.80
10304;DHT22;5197;48.152;8.590;2022-11-18T13:51:45;6.80;23.20
10304;DHT22;5197;48.152;8.590;2022-11-18T13:54:25;6.70;27.00
10304;DHT22;5197;48.152;8.590;2022-11-18T13:56:53;6.60;27.70
10304;DHT22;5197;48.152;8.590;2022-11-18T13:59:22;6.60;29.80
10304;DHT22;5197;48.152;8.590;2022-11-18T14:01:55;6.50;30.80
10304;DHT22;5197;48.152;8.590;2022-11-18T14:04:26;6.50;31.60
10304;DHT22;5197;48.152;8.590;2022-11-18T14:07:22;6.60;30.90
10304;DHT22;5197;48.152;8.590;2022-11-18T14:10:02;6.80;30.00
10304;DHT22;5197;48.152;8.590;2022-11-18T14:12:31;6.90;29.60
10304;DHT22;5197;48.152;8.590;2022-11-18T14:17:56;7.10;28.20
10304;DHT22;5197;48.152;8.590;2022-11-18T14:20:26;7.10;28.20
10304;DHT22;5197;48.152;8.590;2022-11-18T14:22:58;7.00;29.90
10304;DHT22;5197;48.152;8.590;2022-11-18T14:25:29;6.80;34.00
10304;DHT22;5197;48.152;8.590;2022-11-18T14:28:12;6.60;35.20
10304;DHT22;5197;48.152;8.590;2022-11-18T14:30:55;6.50;37.40
10304;DHT22;5197;48.152;8.590;2022-11-18T14:33:24;6.20;36.20
10304;DHT22;5197;48.152;8.590;2022-11-18T14:38:28;5.90;41.20
10304;DHT22;5197;48.152;8.590;2022-11-18T14:41:18;5.90;44.00
10304;DHT22;5197;48.152;8.590;2022-11-18T14:44:12;6.10;38.30
10304;DHT22;5197;48.152;8.590;2022-11-18T14:46:41;6.20;38.70
10304;DHT22;5197;48.152;8.590;2022-11-18T14:49:14;6.20;36.00
10304;DHT22;5197;48.152;8.590;2022-11-18T14:51:44;6.40;35.00
10304;DHT22;5197;48.152;8.590;2022-11-18T14:54:12;6.50;33.30
10304;DHT22;5197;48.152;8.590;2022-11-18T14:56:40;6.50;32.00
10304;DHT22;5197;48.152;8.590;2022-11-18T14:59:13;6.60;30.50
10304;DHT22;5197;48.152;8.590;2022-11-18T15:01:41;6.60;29.80
10304;DHT22;5197;48.152;8.590;2022-11-18T15:04:08;6.50;29.70
10304;DHT22;5197;48.152;8.590;2022-11-18T15:06:35;6.50;29.70
10304;DHT22;5197;48.152;8.590;2022-11-18T15:09:04;6.50;29.80
10304;DHT22;5197;48.152;8.590;2022-11-18T15:11:31;6.50;30.00
10304;DHT22;5197;48.152;8.590;2022-11-18T15:13:58;6.50;29.60
10304;DHT22;5197;48.152;8.590;2022-11-18T15:16:27;6.50;30.40
10304;DHT22;5197;48.152;8.590;2022-11-18T15:18:56;6.50;30.00
10304;DHT22;5197;48.152;8.590;2022-11-18T15:21:27;6.40;30.00
10304;DHT22;5197;48.152;8.590;2022-11-18T15:23:54;6.30;29.80
10304;DHT22;5197;48.152;8.590;2022-11-18T15:28:49;6.20;30.40
10304;DHT22;5197;48.152;8.590;2022-11-18T15:31:16;6.20;30.20
10304;DHT22;5197;48.152;8.590;2022-11-18T15:33:44;6.20;30.10
10304;DHT22;5197;48.152;8.590;2022-11-18T15:36:20;6.10;30.10
10304;DHT22;5197;48.152;8.590;2022-11-18T15:38:48;6.20;30.30
10304;DHT22;5197;48.152;8.590;2022-11-18T15:41:18;6.20;30.60
10304;DHT22;5197;48.152;8.590;2022-11-18T15:43:48;6.20;30.60
10304;DHT22;5197;48.152;8.590;2022-11-18T15:46:16;6.20;30.60
10304;DHT22;5197;48.152;8.590;2022-11-18T15:48:45;6.20;30.70
10304;DHT22;5197;48.152;8.590;2022-11-18T15:51:13;6.30;30.60
10304;DHT22;5197;48.152;8.590;2022-11-18T15:53:40;6.30;30.20
10304;DHT22;5197;48.152;8.590;2022-11-18T15:59:09;6.30;30.20
10304;DHT22;5197;48.152;8.590;2022-11-18T16:01:42;6.30;30.30
10304;DHT22;5197;48.152;8.590;2022-11-18T16:04:11;6.30;30.80
10304;DHT22;5197;48.152;8.590;2022-11-18T16:06:38;6.30;30.80
10304;DHT22;5197;48.152;8.590;2022-11-18T16:09:06;6.30;31.00
10304;DHT22;5197;48.152;8.590;2022-11-18T16:11:33;6.30;31.20
10304;DHT22;5197;48.152;8.590;2022-11-18T16:14:19;6.30;31.60
10304;DHT22;5197;48.152;8.590;2022-11-18T16:16:49;6.20;32.30
10304;DHT22;5197;48.152;8.590;2022-11-18T16:19:19;6.20;32.90
10304;DHT22;5197;48.152;8.590;2022-11-18T16:21:49;6.20;33.00
10304;DHT22;5197;48.152;8.590;2022-11-18T16:24:19;6.20;33.20
10304;DHT22;5197;48.152;8.590;2022-11-18T16:26:47;6.30;33.10
10304;DHT22;5197;48.152;8.590;2022-11-18T16:29:14;6.30;32.70
10304;DHT22;5197;48.152;8.590;2022-11-18T16:31:48;6.20;32.00
10304;DHT22;5197;48.152;8.590;2022-11-18T16:34:22;6.20;32.80
10304;DHT22;5197;48.152;8.590;2022-11-18T16:36:59;6.10;33.00
10304;DHT22;5197;48.152;8.590;2022-11-18T16:39:27;6.00;32.70
10304;DHT22;5197;48.152;8.590;2022-11-18T16:41:59;5.90;33.60
10304;DHT22;5197;48.152;8.590;2022-11-18T16:44:34;5.80;33.30
10304;DHT22;5197;48.152;8.590;2022-11-18T16:47:01;5.80;34.00
10304;DHT22;5197;48.152;8.590;2022-11-18T16:49:33;5.80;34.20
10304;DHT22;5197;48.152;8.590;2022-11-18T16:52:00;5.80;33.80
10304;DHT22;5197;48.152;8.590;2022-11-18T16:54:29;5.90;33.50
10304;DHT22;5197;48.152;8.590;2022-11-18T16:56:58;5.90;32.80
10304;DHT22;5197;48.152;8.590;2022-11-18T16:59:29;5.90;32.20
10304;DHT22;5197;48.152;8.590;2022-11-18T17:01:58;5.90;31.80
10304;DHT22;5197;48.152;8.590;2022-11-18T17:04:27;5.90;31.80
10304;DHT22;5197;48.152;8.590;2022-11-18T17:06:58;5.90;31.50
10304;DHT22;5197;48.152;8.590;2022-11-18T17:09:26;5.90;31.50
10304;DHT22;5197;48.152;8.590;2022-11-18T17:11:54;5.90;31.30
10304;DHT22;5197;48.152;8.590;2022-11-18T17:14:22;5.90;31.10
10304;DHT22;5197;48.152;8.590;2022-11-18T17:16:50;5.90;30.90
10304;DHT22;5197;48.152;8.590;2022-11-18T17:19:19;5.80;30.80
10304;DHT22;5197;48.152;8.590;2022-11-18T17:21:48;5.80;30.90
10304;DHT22;5197;48.152;8.590;2022-11-18T17:24:20;5.80;31.00
10304;DHT22;5197;48.152;8.590;2022-11-18T17:26:49;5.80;31.00
10304;DHT22;5197;48.152;8.590;2022-11-18T17:29:17;5.70;30.90
10304;DHT22;5197;48.152;8.590;2022-11-18T17:31:45;5.70;30.90
10304;DHT22;5197;48.152;8.590;2022-11-18T17:34:13;5.70;30.90
10304;DHT22;5197;48.152;8.590;2022-11-18T17:36:40;5.70;30.80
10304;DHT22;5197;48.152;8.590;2022-11-18T17:39:09;5.70;30.70
10304;DHT22;5197;48.152;8.590;2022-11-18T17:41:37;5.70;30.50
10304;DHT22;5197;48.152;8.590;2022-11-18T17:44:23;5.60;30.30
10304;DHT22;5197;48.152;8.590;2022-11-18T17:46:50;5.60;30.30
10304;DHT22;5197;48.152;8.590;2022-11-18T17:49:18;5.60;29.80
10304;DHT22;5197;48.152;8.590;2022-11-18T17:51:47;5.60;30.20
10304;DHT22;5197;48.152;8.590;2022-11-18T17:54:14;5.60;30.50
10304;DHT22;5197;48.152;8.590;2022-11-18T17:56:42;5.50;30.30
10304;DHT22;5197;48.152;8.590;2022-11-18T17:59:09;5.50;30.20
10304;DHT22;5197;48.152;8.590;2022-11-18T18:01:36;5.50;30.30
10304;DHT22;5197;48.152;8.590;2022-11-18T18:04:03;5.50;30.40
10304;DHT22;5197;48.152;8.590;2022-11-18T18:06:30;5.40;30.20
10304;DHT22;5197;48.152;8.590;2022-11-18T18:08:58;5.40;30.40
10304;DHT22;5197;48.152;8.590;2022-11-18T18:11:25;5.30;30.10
10304;DHT22;5197;48.152;8.590;2022-11-18T18:13:53;5.30;30.90
10304;DHT22;5197;48.152;8.590;2022-11-18T18:16:41;5.30;31.40
10304;DHT22;5197;48.152;8.590;2022-11-18T18:19:10;5.20;31.70
10304;DHT22;5197;48.152;8.590;2022-11-18T18:21:37;5.20;31.80
10304;DHT22;5197;48.152;8.590;2022-11-18T18:24:05;5.20;31.80
10304;DHT22;5197;48.152;8.590;2022-11-18T18:26:32;5.20;32.10
10304;DHT22;5197;48.152;8.590;2022-11-18T18:29:00;5.20;32.40
10304;DHT22;5197;48.152;8.590;2022-11-18T18:31:27;3.30;31.00
10304;DHT22;5197;48.152;8.590;2022-11-18T18:33:54;5.20;32.40
10304;DHT22;5197;48.152;8.590;2022-11-18T18:36:22;5.20;32.70
10304;DHT22;5197;48.152;8.590;2022-11-18T18:38:51;5.30;33.20
10304;DHT22;5197;48.152;8.590;2022-11-18T18:41:20;5.30;33.20
10304;DHT22;5197;48.152;8.590;2022-11-18T18:43:48;5.30;33.20
10304;DHT22;5197;48.152;8.590;2022-11-18T18:46:18;5.30;33.40
10304;DHT22;5197;48.152;8.590;2022-11-18T18:49:09;5.40;33.80
10304;DHT22;5197;48.152;8.590;2022-11-18T18:51:38;5.40;33.90
10304;DHT22;5197;48.152;8.590;2022-11-18T18:54:06;5.40;34.00
10304;DHT22;5197;48.152;8.590;2022-11-18T18:56:34;5.50;34.10
10304;DHT22;5197;48.152;8.590;2022-11-18T18:59:01;5.50;34.30
10304;DHT22;5197;48.152;8.590;2022-11-18T19:01:28;5.50;34.60